createdAt,value
2018-03-16T00:01:16.407Z,8.77
2018-03-16T00:03:43.978Z,8.74
2018-03-16T00:06:11.542Z,8.68
2018-03-16T00:08:39.119Z,8.67
2018-03-16T00:11:06.864Z,8.60
2018-03-16T00:13:34.581Z,8.57
2018-03-16T00:16:02.156Z,8.56
2018-03-16T00:18:29.709Z,8.54
2018-03-16T00:20:57.437Z,8.56
2018-03-16T00:23:25.157Z,8.61
2018-03-16T00:25:52.726Z,8.62
2018-03-16T00:28:20.290Z,8.64
2018-03-16T00:30:47.870Z,8.63
2018-03-16T00:33:15.426Z,8.66
2018-03-16T00:35:43.248Z,8.65
2018-03-16T00:38:10.810Z,8.66
2018-03-16T00:40:38.582Z,8.72
2018-03-16T00:43:06.149Z,8.74
2018-03-16T00:45:33.717Z,8.74
2018-03-16T00:48:01.296Z,8.70
2018-03-16T00:50:29.054Z,8.62
2018-03-16T00:52:56.696Z,8.49
2018-03-16T00:55:24.492Z,8.47
2018-03-16T00:57:52.078Z,8.45
2018-03-16T01:00:19.648Z,8.47
2018-03-16T01:02:47.335Z,8.50
2018-03-16T01:05:15.060Z,8.45
2018-03-16T01:07:42.670Z,8.41
2018-03-16T01:10:10.243Z,8.38
2018-03-16T01:12:37.813Z,8.32
2018-03-16T01:15:05.385Z,8.28
2018-03-16T01:17:32.942Z,8.29
2018-03-16T01:20:00.513Z,8.26
2018-03-16T01:22:28.076Z,8.21
2018-03-16T01:24:55.694Z,8.23
2018-03-16T01:27:23.264Z,8.20
2018-03-16T01:29:50.938Z,8.25
2018-03-16T01:32:18.536Z,8.23
2018-03-16T01:34:46.199Z,8.20
2018-03-16T01:37:13.992Z,8.15
2018-03-16T01:39:41.541Z,8.10
2018-03-16T01:42:09.115Z,8.13
2018-03-16T01:44:36.674Z,8.08
2018-03-16T01:47:04.254Z,7.95
2018-03-16T01:49:31.893Z,7.83
2018-03-16T01:51:59.450Z,7.65
2018-03-16T01:54:27.219Z,7.57
2018-03-16T01:56:54.775Z,7.54
2018-03-16T01:59:22.520Z,7.40
2018-03-16T02:01:50.242Z,7.26
2018-03-16T02:04:17.969Z,7.21
2018-03-16T02:06:45.712Z,7.15
2018-03-16T02:09:13.267Z,7.10
2018-03-16T02:11:40.838Z,7.14
2018-03-16T02:14:08.553Z,7.11
2018-03-16T02:16:36.161Z,7.07
2018-03-16T02:19:03.879Z,7.02
2018-03-16T02:21:31.454Z,6.96
2018-03-16T02:23:59.014Z,6.91
2018-03-16T02:26:26.757Z,6.87
2018-03-16T02:28:54.322Z,6.79
2018-03-16T02:31:21.895Z,6.80
2018-03-16T02:33:49.465Z,6.84
2018-03-16T02:36:17.192Z,6.88
2018-03-16T02:38:44.942Z,6.83
2018-03-16T02:41:12.527Z,6.81
2018-03-16T02:43:40.247Z,6.85
2018-03-16T02:46:07.826Z,6.83
2018-03-16T02:48:35.615Z,6.75
2018-03-16T02:51:03.435Z,6.69
2018-03-16T02:53:31.252Z,6.66
2018-03-16T02:55:59.069Z,6.62
2018-03-16T02:58:26.621Z,6.62
2018-03-16T03:00:54.294Z,6.65
2018-03-16T03:03:21.888Z,6.60
2018-03-16T03:05:49.642Z,6.63
2018-03-16T03:08:17.214Z,6.67
2018-03-16T03:10:44.780Z,6.64
2018-03-16T03:13:12.596Z,6.64
2018-03-16T03:15:40.237Z,6.65
2018-03-16T03:18:07.812Z,6.66
2018-03-16T03:20:35.553Z,6.60
2018-03-16T03:23:03.369Z,6.59
2018-03-16T03:25:30.940Z,6.61
2018-03-16T03:27:58.497Z,6.64
2018-03-16T03:30:26.223Z,6.63
2018-03-16T03:32:54.042Z,6.53
2018-03-16T03:35:21.598Z,6.56
2018-03-16T03:37:49.380Z,6.54
2018-03-16T03:40:16.946Z,6.56
2018-03-16T03:42:44.510Z,6.55
2018-03-16T03:45:12.233Z,6.61
2018-03-16T03:47:39.805Z,6.57
2018-03-16T03:50:07.362Z,6.60
2018-03-16T03:52:35.185Z,6.66
2018-03-16T03:55:02.742Z,6.60
2018-03-16T03:57:30.306Z,6.57
2018-03-16T03:59:57.890Z,6.53
2018-03-16T04:02:25.525Z,6.52
2018-03-16T04:04:53.374Z,6.51
2018-03-16T04:07:20.929Z,6.51
2018-03-16T04:09:48.496Z,6.48
2018-03-16T04:12:16.054Z,6.43
2018-03-16T04:14:43.622Z,6.40
2018-03-16T04:17:11.174Z,6.41
2018-03-16T04:19:38.766Z,6.44
2018-03-16T04:22:06.338Z,6.43
2018-03-16T04:24:34.118Z,6.53
2018-03-16T04:27:01.673Z,6.62
2018-03-16T04:29:29.283Z,6.71
2018-03-16T04:31:57.072Z,6.70
2018-03-16T04:34:24.991Z,6.69
2018-03-16T04:36:52.551Z,6.71
2018-03-16T04:39:20.327Z,6.74
2018-03-16T04:41:47.895Z,6.77
2018-03-16T04:44:15.666Z,6.82
2018-03-16T04:46:43.274Z,6.83
2018-03-16T04:49:10.838Z,6.88
2018-03-16T04:51:38.462Z,6.92
2018-03-16T04:54:06.208Z,6.92
2018-03-16T04:56:33.773Z,6.86
2018-03-16T04:59:01.346Z,6.87
2018-03-16T05:01:28.906Z,6.92
2018-03-16T05:03:56.707Z,6.94
2018-03-16T05:06:24.271Z,6.99
2018-03-16T05:08:51.924Z,7.07
2018-03-16T05:11:19.480Z,7.18
2018-03-16T05:13:47.100Z,7.19
2018-03-16T05:16:14.896Z,7.28
2018-03-16T05:18:42.474Z,7.35
2018-03-16T05:21:10.050Z,7.41
2018-03-16T05:23:37.610Z,7.48
2018-03-16T05:26:05.286Z,7.54
2018-03-16T05:28:32.842Z,7.58
2018-03-16T05:31:00.409Z,7.61
2018-03-16T05:33:27.987Z,7.75
2018-03-16T05:35:55.586Z,7.83
2018-03-16T05:38:23.251Z,7.94
2018-03-16T05:40:50.854Z,7.98
2018-03-16T05:43:18.423Z,8.02
2018-03-16T05:45:46.311Z,8.06
2018-03-16T05:48:14.130Z,8.16
2018-03-16T05:50:41.695Z,8.17
2018-03-16T05:53:09.315Z,8.22
2018-03-16T05:55:36.882Z,8.30
2018-03-16T05:58:04.479Z,8.37
2018-03-16T06:00:32.078Z,8.44
2018-03-16T06:02:59.638Z,8.50
2018-03-16T06:05:27.444Z,8.57
2018-03-16T06:07:55.064Z,8.69
2018-03-16T06:10:22.792Z,8.88
2018-03-16T06:12:50.350Z,9.07
2018-03-16T06:15:18.095Z,9.19
2018-03-16T06:17:45.812Z,9.25
2018-03-16T06:20:13.445Z,9.40
2018-03-16T06:22:41.060Z,9.50
2018-03-16T06:25:08.682Z,9.65
2018-03-16T06:27:36.257Z,9.82
2018-03-16T06:30:03.899Z,10.00
2018-03-16T06:32:31.477Z,10.26
2018-03-16T06:34:59.043Z,10.50
2018-03-16T06:37:26.889Z,10.75
2018-03-16T06:39:54.455Z,10.87
2018-03-16T06:42:22.201Z,10.96
2018-03-16T06:44:49.912Z,10.96
2018-03-16T06:47:17.763Z,11.03
2018-03-16T06:49:45.338Z,11.13
2018-03-16T06:52:13.071Z,11.32
2018-03-16T06:54:40.817Z,11.48
2018-03-16T06:57:08.402Z,11.62
2018-03-16T06:59:36.026Z,11.67
2018-03-16T07:02:03.865Z,11.68
2018-03-16T07:04:31.432Z,11.70
2018-03-16T07:07:00.011Z,11.70
2018-03-16T07:09:27.829Z,11.68
2018-03-16T07:11:55.438Z,11.66
2018-03-16T07:14:22.994Z,11.63
2018-03-16T07:16:50.675Z,11.65
2018-03-16T07:19:18.504Z,11.61
2018-03-16T07:21:46.151Z,11.62
2018-03-16T07:24:13.741Z,11.72
2018-03-16T07:26:41.313Z,11.78
2018-03-16T07:29:08.894Z,11.78
2018-03-16T07:31:36.458Z,11.70
2018-03-16T07:34:04.045Z,11.66
2018-03-16T07:36:31.606Z,11.66
2018-03-16T07:38:59.178Z,11.58
2018-03-16T07:41:26.962Z,11.56
2018-03-16T07:43:54.578Z,11.60
2018-03-16T07:46:22.308Z,11.67
2018-03-16T07:48:49.907Z,11.82
2018-03-16T07:51:17.717Z,12.00
2018-03-16T07:53:45.273Z,12.15
2018-03-16T07:56:13.079Z,12.23
2018-03-16T07:58:40.679Z,12.28
2018-03-16T08:01:08.417Z,12.36
2018-03-16T08:03:35.997Z,12.35
2018-03-16T08:06:03.844Z,12.37
2018-03-16T08:08:31.414Z,12.35
2018-03-16T08:10:58.978Z,12.37
2018-03-16T08:13:26.798Z,12.52
2018-03-16T08:15:54.407Z,12.64
2018-03-16T08:18:22.219Z,12.72
2018-03-16T08:20:49.814Z,12.86
2018-03-16T08:23:17.412Z,12.97
2018-03-16T08:25:45.005Z,13.07
2018-03-16T08:28:12.572Z,13.24
2018-03-16T08:30:40.378Z,13.43
2018-03-16T08:33:08.245Z,13.65
2018-03-16T08:35:35.813Z,13.91
2018-03-16T08:38:03.394Z,14.24
2018-03-16T08:40:30.978Z,14.68
2018-03-16T08:42:58.554Z,15.12
2018-03-16T08:45:26.148Z,15.72
2018-03-16T08:47:53.740Z,16.30
2018-03-16T08:50:21.326Z,16.96
2018-03-16T08:52:48.987Z,17.73
2018-03-16T08:55:16.553Z,18.58
2018-03-16T08:57:44.123Z,19.42
2018-03-16T09:00:11.729Z,20.15
2018-03-16T09:02:39.358Z,20.24
2018-03-16T09:05:06.954Z,20.38
2018-03-16T09:07:34.692Z,20.32
2018-03-16T09:10:02.412Z,20.42
2018-03-16T09:12:30.059Z,20.68
2018-03-16T09:14:57.749Z,20.86
2018-03-16T09:17:25.318Z,20.71
2018-03-16T09:19:53.085Z,21.26
2018-03-16T09:22:20.678Z,21.92
2018-03-16T09:24:48.255Z,22.22
2018-03-16T09:27:16.137Z,22.08
2018-03-16T09:29:43.749Z,21.80
2018-03-16T09:32:11.369Z,21.90
2018-03-16T09:34:38.930Z,22.34
2018-03-16T09:37:06.563Z,22.40
2018-03-16T09:39:34.327Z,22.91
2018-03-16T09:42:02.146Z,23.35
2018-03-16T09:44:29.726Z,23.95
2018-03-16T09:46:57.304Z,24.08
2018-03-16T09:49:25.102Z,23.86
2018-03-16T09:51:52.682Z,24.14
2018-03-16T09:54:20.327Z,24.41
2018-03-16T09:56:47.899Z,24.95
2018-03-16T09:59:15.469Z,25.42
2018-03-16T10:01:43.038Z,25.56
2018-03-16T10:04:10.618Z,24.97
2018-03-16T10:06:38.265Z,24.56
2018-03-16T10:09:05.882Z,24.25
2018-03-16T10:11:33.442Z,23.74
2018-03-16T10:14:01.010Z,23.66
2018-03-16T10:16:28.800Z,24.13
2018-03-16T10:18:56.591Z,24.37
2018-03-16T10:21:24.308Z,24.41
2018-03-16T10:23:52.147Z,24.39
2018-03-16T10:26:19.718Z,24.24
2018-03-16T10:28:47.279Z,24.00
2018-03-16T10:31:14.872Z,23.84
2018-03-16T10:33:42.430Z,23.31
2018-03-16T10:36:09.992Z,23.13
2018-03-16T10:38:37.545Z,23.26
2018-03-16T10:41:05.381Z,23.22
2018-03-16T10:43:32.938Z,23.22
2018-03-16T10:46:00.504Z,22.97
2018-03-16T10:48:28.101Z,23.02
2018-03-16T10:50:55.693Z,23.03
2018-03-16T10:53:23.467Z,22.66
2018-03-16T10:55:51.288Z,22.41
2018-03-16T10:58:19.002Z,21.94
2018-03-16T11:00:52.006Z,21.51
2018-03-16T11:03:19.738Z,21.26
2018-03-16T11:05:52.727Z,21.25
2018-03-16T11:08:25.848Z,21.46
2018-03-16T11:10:53.442Z,21.60
2018-03-16T11:13:21.006Z,21.09
2018-03-16T11:15:48.571Z,20.61
2018-03-16T11:18:16.303Z,20.61
2018-03-16T11:20:44.125Z,20.71
2018-03-16T11:23:11.841Z,20.82
2018-03-16T11:25:39.464Z,21.07
2018-03-16T11:28:07.050Z,21.14
2018-03-16T11:30:34.798Z,21.39
2018-03-16T11:33:02.614Z,21.54
2018-03-16T11:35:30.180Z,21.52
2018-03-16T11:37:57.770Z,21.20
2018-03-16T11:40:25.348Z,21.43
2018-03-16T11:42:52.977Z,21.64
2018-03-16T11:45:20.696Z,22.15
2018-03-16T11:47:48.253Z,22.30
2018-03-16T11:50:15.922Z,22.63
2018-03-16T11:52:43.494Z,22.70
2018-03-16T11:55:11.246Z,22.79
2018-03-16T11:57:38.962Z,22.79
2018-03-16T12:00:06.753Z,22.63
2018-03-16T12:02:34.530Z,22.47
2018-03-16T12:05:02.102Z,22.58
2018-03-16T12:07:29.885Z,22.77
2018-03-16T12:09:57.687Z,22.58
2018-03-16T12:12:25.346Z,22.26
2018-03-16T12:14:52.900Z,22.70
2018-03-16T12:17:20.530Z,22.70
2018-03-16T12:19:48.357Z,22.43
2018-03-16T12:22:16.484Z,22.16
2018-03-16T12:24:44.281Z,22.17
2018-03-16T12:27:12.014Z,22.33
2018-03-16T12:29:39.583Z,22.15
2018-03-16T12:32:07.351Z,21.79
2018-03-16T12:34:35.202Z,21.54
2018-03-16T12:37:03.006Z,21.21
2018-03-16T12:39:30.581Z,21.09
2018-03-16T12:41:58.202Z,21.19
2018-03-16T12:44:25.823Z,21.21
2018-03-16T12:46:53.413Z,21.33
2018-03-16T12:49:21.177Z,20.96
2018-03-16T12:51:48.755Z,20.63
2018-03-16T12:54:16.515Z,20.35
2018-03-16T12:56:44.126Z,20.07
2018-03-16T12:59:11.680Z,19.76
2018-03-16T13:01:39.359Z,19.30
2018-03-16T13:04:07.186Z,19.09
2018-03-16T13:06:34.751Z,18.82
2018-03-16T13:09:02.517Z,18.53
2018-03-16T13:11:30.213Z,18.44
2018-03-16T13:13:57.791Z,18.39
2018-03-16T13:16:25.584Z,18.28
2018-03-16T13:18:53.239Z,18.20
2018-03-16T13:21:20.806Z,18.03
2018-03-16T13:23:48.531Z,17.74
2018-03-16T13:26:16.119Z,17.60
2018-03-16T13:28:43.675Z,17.47
2018-03-16T13:31:11.298Z,17.35
2018-03-16T13:33:39.106Z,17.31
2018-03-16T13:36:06.922Z,17.34
2018-03-16T13:38:34.740Z,17.29
2018-03-16T13:41:02.388Z,17.21
2018-03-16T13:43:30.177Z,17.25
2018-03-16T13:45:57.752Z,17.29
2018-03-16T13:48:25.487Z,17.19
2018-03-16T13:50:53.046Z,17.12
2018-03-16T13:53:20.614Z,17.03
2018-03-16T13:55:48.367Z,17.00
2018-03-16T13:58:16.097Z,16.96
2018-03-16T14:00:43.672Z,16.94
2018-03-16T14:03:12.382Z,16.92
2018-03-16T14:05:39.950Z,16.83
2018-03-16T14:08:07.551Z,16.84
2018-03-16T14:10:35.238Z,16.87
2018-03-16T14:13:02.814Z,16.89
2018-03-16T14:15:30.615Z,16.95
2018-03-16T14:17:58.223Z,17.00
2018-03-16T14:20:25.794Z,17.06
2018-03-16T14:22:53.358Z,17.12
2018-03-16T14:25:21.066Z,17.19
2018-03-16T14:27:48.631Z,17.23
2018-03-16T14:30:16.457Z,17.21
2018-03-16T14:32:44.243Z,17.22
2018-03-16T14:35:12.059Z,17.21
2018-03-16T14:37:39.635Z,17.31
2018-03-16T14:40:07.289Z,17.27
2018-03-16T14:42:34.866Z,17.34
2018-03-16T14:45:02.427Z,17.27
2018-03-16T14:47:29.986Z,17.22
2018-03-16T14:49:57.559Z,17.13
2018-03-16T14:52:25.284Z,17.00
2018-03-16T14:54:53.106Z,16.98
2018-03-16T14:57:20.714Z,16.92
2018-03-16T14:59:48.539Z,16.85
2018-03-16T15:02:16.271Z,16.81
2018-03-16T15:04:44.076Z,16.80
2018-03-16T15:07:11.866Z,16.75
2018-03-16T15:09:39.583Z,16.72
2018-03-16T15:12:07.150Z,16.68
2018-03-16T15:14:34.735Z,16.63
2018-03-16T15:17:02.391Z,16.60
2018-03-16T15:19:29.967Z,16.56
2018-03-16T15:21:57.596Z,16.58
2018-03-16T15:24:25.159Z,16.61
2018-03-16T15:26:52.764Z,16.58
2018-03-16T15:29:20.448Z,16.55
2018-03-16T15:31:48.007Z,16.52
2018-03-16T15:34:15.582Z,16.54
2018-03-16T15:36:43.313Z,16.54
2018-03-16T15:39:10.878Z,16.51
2018-03-16T15:41:38.446Z,16.47
2018-03-16T15:44:06.082Z,16.43
2018-03-16T15:46:33.882Z,16.43
2018-03-16T15:49:01.476Z,16.41
2018-03-16T15:51:29.046Z,16.38
2018-03-16T15:53:56.602Z,16.34
2018-03-16T15:56:24.178Z,16.29
2018-03-16T15:58:51.744Z,16.27
2018-03-16T16:01:19.491Z,16.28
2018-03-16T16:03:47.075Z,16.28
2018-03-16T16:06:14.889Z,16.24
2018-03-16T16:08:42.441Z,16.21
2018-03-16T16:11:10.054Z,16.20
2018-03-16T16:13:37.632Z,16.18
2018-03-16T16:16:05.287Z,16.14
2018-03-16T16:18:33.015Z,16.13
2018-03-16T16:21:00.836Z,16.09
2018-03-16T16:23:28.447Z,16.03
2018-03-16T16:25:56.014Z,15.99
2018-03-16T16:28:23.590Z,15.99
2018-03-16T16:30:51.192Z,15.94
2018-03-16T16:33:18.752Z,15.91
2018-03-16T16:35:46.332Z,15.92
2018-03-16T16:38:13.899Z,15.90
2018-03-16T16:40:41.468Z,15.86
2018-03-16T16:43:09.026Z,15.84
2018-03-16T16:45:36.813Z,15.82
2018-03-16T16:48:04.391Z,15.84
2018-03-16T16:50:32.008Z,15.82
2018-03-16T16:52:59.576Z,15.81
2018-03-16T16:55:27.134Z,15.75
2018-03-16T16:57:54.717Z,15.73
2018-03-16T17:00:22.520Z,15.69
2018-03-16T17:02:50.086Z,15.64
2018-03-16T17:05:17.643Z,15.68
2018-03-16T17:07:45.215Z,15.68
2018-03-16T17:10:12.972Z,15.67
2018-03-16T17:12:40.687Z,15.66
2018-03-16T17:15:08.432Z,15.63
2018-03-16T17:17:36.056Z,15.64
2018-03-16T17:20:03.865Z,15.62
2018-03-16T17:22:31.436Z,15.61
2018-03-16T17:24:59.000Z,15.60
2018-03-16T17:27:26.740Z,15.63
2018-03-16T17:29:54.312Z,15.63
2018-03-16T17:32:24.334Z,15.60
2018-03-16T17:34:49.897Z,15.57
2018-03-16T17:37:18.351Z,15.53
2018-03-16T17:39:46.115Z,15.53
2018-03-16T17:42:13.931Z,15.58
2018-03-16T17:44:41.755Z,15.59
2018-03-16T17:47:09.322Z,15.61
2018-03-16T17:49:37.086Z,15.56
2018-03-16T17:52:04.774Z,15.50
2018-03-16T17:54:32.338Z,15.46
2018-03-16T17:57:00.142Z,15.43
2018-03-16T17:59:27.750Z,15.41
2018-03-16T18:01:55.308Z,15.39
2018-03-16T18:04:22.985Z,15.39
2018-03-16T18:06:50.562Z,15.39
2018-03-16T18:09:18.331Z,15.42
2018-03-16T18:11:45.933Z,15.40
2018-03-16T18:14:13.767Z,15.38
2018-03-16T18:16:41.322Z,15.32
2018-03-16T18:19:08.996Z,15.30
2018-03-16T18:21:36.721Z,15.27
2018-03-16T18:24:04.318Z,15.25
2018-03-16T18:26:31.902Z,15.25
2018-03-16T18:28:59.649Z,15.23
2018-03-16T18:31:27.237Z,15.22
2018-03-16T18:33:54.902Z,15.17
2018-03-16T18:36:22.471Z,15.12
2018-03-16T18:38:50.032Z,15.10
2018-03-16T18:41:17.835Z,15.09
2018-03-16T18:43:45.413Z,15.05
2018-03-16T18:46:13.201Z,15.03
2018-03-16T18:48:40.770Z,15.00
2018-03-16T18:51:08.455Z,14.98
2018-03-16T18:53:36.256Z,14.94
2018-03-16T18:56:04.074Z,14.91
2018-03-16T18:58:31.659Z,14.82
2018-03-16T19:00:59.238Z,14.84
2018-03-16T19:03:27.128Z,14.83
2018-03-16T19:05:54.865Z,14.80
2018-03-16T19:08:22.490Z,14.77
2018-03-16T19:10:50.284Z,14.74
2018-03-16T19:13:18.102Z,14.77
2018-03-16T19:15:45.921Z,14.76
2018-03-16T19:18:13.490Z,14.71
2018-03-16T19:20:41.246Z,14.66
2018-03-16T19:23:08.975Z,14.64
2018-03-16T19:25:36.595Z,14.65
2018-03-16T19:28:04.222Z,14.66
2018-03-16T19:30:31.795Z,14.58
2018-03-16T19:32:59.547Z,14.61
2018-03-16T19:35:27.813Z,14.57
2018-03-16T19:37:55.736Z,14.53
2018-03-16T19:40:23.505Z,14.51
2018-03-16T19:42:51.066Z,14.44
2018-03-16T19:45:18.626Z,14.42
2018-03-16T19:47:46.458Z,14.44
2018-03-16T19:50:14.023Z,14.44
2018-03-16T19:52:41.675Z,14.39
2018-03-16T19:55:09.382Z,14.41
2018-03-16T19:57:36.983Z,14.51
2018-03-16T20:00:04.760Z,14.56
2018-03-16T20:02:32.569Z,14.53
2018-03-16T20:05:00.387Z,14.53
2018-03-16T20:07:28.206Z,14.47
2018-03-16T20:09:56.842Z,14.49
2018-03-16T20:12:24.797Z,14.51
2018-03-16T20:14:52.351Z,14.53
2018-03-16T20:17:20.053Z,14.53
2018-03-16T20:19:47.611Z,14.45
2018-03-16T20:22:15.210Z,14.49
2018-03-16T20:24:42.764Z,14.45
2018-03-16T20:27:10.365Z,14.37
2018-03-16T20:29:37.938Z,14.34
2018-03-16T20:32:05.518Z,14.44
2018-03-16T20:34:33.198Z,14.46
2018-03-16T20:37:01.025Z,14.40
2018-03-16T20:39:28.843Z,14.38
2018-03-16T20:41:56.462Z,14.34
2018-03-16T20:44:24.281Z,14.32
2018-03-16T20:46:52.099Z,14.32
2018-03-16T20:49:19.666Z,14.33
2018-03-16T20:51:47.334Z,14.32
2018-03-16T20:54:15.153Z,14.23
2018-03-16T20:56:42.943Z,14.18
2018-03-16T20:59:10.510Z,14.14
2018-03-16T21:01:38.365Z,14.11
2018-03-16T21:04:05.976Z,14.06
2018-03-16T21:06:33.626Z,14.05
2018-03-16T21:09:01.194Z,14.04
2018-03-16T21:11:28.777Z,14.03
2018-03-16T21:13:56.600Z,14.01
2018-03-16T21:16:24.417Z,14.00
2018-03-16T21:18:51.976Z,13.98
2018-03-16T21:21:19.576Z,13.96
2018-03-16T21:23:47.291Z,13.95
2018-03-16T21:26:15.092Z,13.98
2018-03-16T21:28:42.907Z,13.97
2018-03-16T21:31:10.479Z,14.03
2018-03-16T21:33:38.055Z,13.99
2018-03-16T21:36:05.648Z,13.98
2018-03-16T21:38:33.479Z,13.88
2018-03-16T21:41:01.045Z,13.94
2018-03-16T21:43:28.708Z,13.97
2018-03-16T21:45:56.266Z,13.96
2018-03-16T21:48:23.826Z,13.99
2018-03-16T21:50:51.410Z,13.98
2018-03-16T21:53:19.187Z,13.98
2018-03-16T21:55:46.787Z,13.98
2018-03-16T21:58:14.523Z,14.02
2018-03-16T22:00:42.348Z,13.97
2018-03-16T22:03:09.918Z,13.93
2018-03-16T22:05:37.474Z,13.90
2018-03-16T22:08:05.123Z,13.92
2018-03-16T22:10:32.689Z,13.93
2018-03-16T22:13:00.291Z,13.92
2018-03-16T22:15:28.049Z,13.98
2018-03-16T22:17:55.606Z,13.98
2018-03-16T22:20:23.171Z,13.96
2018-03-16T22:22:50.744Z,13.89
2018-03-16T22:25:18.314Z,13.91
2018-03-16T22:27:46.028Z,13.86
2018-03-16T22:30:13.857Z,13.87
2018-03-16T22:32:41.418Z,13.87
2018-03-16T22:35:09.193Z,13.86
2018-03-16T22:37:36.759Z,13.87
2018-03-16T22:40:04.632Z,13.90
2018-03-16T22:42:32.202Z,13.90
2018-03-16T22:44:59.750Z,13.93
2018-03-16T22:47:27.585Z,13.92
2018-03-16T22:49:55.138Z,13.95
2018-03-16T22:52:22.698Z,13.92
2018-03-16T22:54:50.298Z,13.95
2018-03-16T22:57:17.900Z,13.96
2018-03-16T22:59:45.474Z,14.04
2018-03-16T23:02:13.077Z,13.96
2018-03-16T23:04:40.687Z,13.89
2018-03-16T23:07:08.258Z,13.87
2018-03-16T23:09:36.010Z,13.89
2018-03-16T23:12:03.763Z,13.89
2018-03-16T23:14:31.322Z,13.90
2018-03-16T23:16:58.902Z,13.87
2018-03-16T23:19:26.474Z,13.84
2018-03-16T23:21:54.110Z,13.82
2018-03-16T23:24:21.857Z,13.79
2018-03-16T23:26:49.671Z,13.86
2018-03-16T23:29:17.491Z,13.87
2018-03-16T23:31:45.308Z,13.88
2018-03-16T23:34:12.917Z,13.96
2018-03-16T23:36:40.536Z,14.01
2018-03-16T23:39:08.262Z,14.04
2018-03-16T23:41:35.949Z,14.08
2018-03-16T23:44:03.799Z,14.06
2018-03-16T23:46:31.364Z,14.03
2018-03-16T23:48:58.930Z,13.99
2018-03-16T23:51:26.498Z,13.95
2018-03-16T23:53:54.064Z,13.92
2018-03-16T23:56:21.888Z,13.95
2018-03-16T23:58:49.460Z,13.95
